createdAt,value
2022-10-18T00:00:58.706Z,102469.75
2022-10-18T00:03:26.171Z,102469.75
2022-10-18T00:05:53.243Z,102471.66
2022-10-18T00:08:21.110Z,102473.50
2022-10-18T00:10:49.018Z,102463.66
2022-10-18T00:13:16.200Z,102463.84
2022-10-18T00:15:51.807Z,102457.66
2022-10-18T00:18:19.827Z,102457.75
2022-10-18T00:21:00.322Z,102453.41
2022-10-18T00:23:30.271Z,102449.84
2022-10-18T00:26:14.999Z,102444.63
2022-10-18T00:28:43.510Z,102441.13
2022-10-18T00:31:22.238Z,102442.97
2022-10-18T00:33:56.451Z,102447.56
2022-10-18T00:36:24.677Z,102441.41
2022-10-18T00:38:52.256Z,102443.31
2022-10-18T00:41:26.841Z,102438.97
2022-10-18T00:44:04.350Z,102433.72
2022-10-18T00:46:35.295Z,102435.56
2022-10-18T00:49:17.618Z,102438.38
2022-10-18T00:52:00.172Z,102431.22
2022-10-18T00:54:30.284Z,102425.81
2022-10-18T00:56:57.513Z,102417.03
2022-10-18T00:59:26.043Z,102422.53
2022-10-18T01:01:53.382Z,102426.28
2022-10-18T01:04:21.587Z,102420.00
2022-10-18T01:07:57.397Z,102425.50
2022-10-18T01:11:10.127Z,102422.00
2022-10-18T01:13:44.313Z,102424.88
2022-10-18T01:16:46.071Z,102422.38
2022-10-18T01:19:43.944Z,102421.50
2022-10-18T01:22:30.935Z,102420.69
2022-10-18T01:25:18.808Z,102428.03
2022-10-18T01:28:16.510Z,102412.03
2022-10-18T01:30:52.893Z,102418.44
2022-10-18T01:34:03.082Z,102417.59
2022-10-18T01:36:36.697Z,102411.31
2022-10-18T01:39:09.695Z,102404.16
2022-10-18T01:41:40.118Z,102406.00
2022-10-18T01:44:11.600Z,102409.66
2022-10-18T01:46:41.564Z,102406.19
2022-10-18T01:49:08.758Z,102408.00
2022-10-18T01:51:35.859Z,102409.03
2022-10-18T01:54:03.212Z,102397.38
2022-10-18T01:56:46.210Z,102400.19
2022-10-18T01:59:32.268Z,102399.41
2022-10-18T02:02:16.312Z,102394.06
2022-10-18T02:05:03.534Z,102396.06
2022-10-18T02:08:22.438Z,102402.44
2022-10-18T02:10:58.695Z,102399.91
2022-10-18T02:13:30.495Z,102392.78
2022-10-18T02:16:03.799Z,102399.09
2022-10-18T02:18:42.328Z,102402.88
2022-10-18T02:21:13.604Z,102393.13
2022-10-18T02:23:40.557Z,102389.47
2022-10-18T02:26:07.741Z,102394.91
2022-10-18T02:28:34.804Z,102381.44
2022-10-18T02:31:21.786Z,102392.28
2022-10-18T02:34:11.802Z,102384.38
2022-10-18T02:36:46.197Z,102377.25
2022-10-18T02:39:18.639Z,102380.91
2022-10-18T02:41:45.652Z,102380.91
2022-10-18T02:44:12.999Z,102379.16
2022-10-18T02:46:40.558Z,102371.06
2022-10-18T02:49:07.504Z,102375.69
2022-10-18T02:51:34.714Z,102376.72
2022-10-18T02:54:01.687Z,102370.47
2022-10-18T02:56:28.604Z,102366.13
2022-10-18T02:58:55.674Z,102373.22
2022-10-18T03:01:22.651Z,102375.94
2022-10-18T03:03:49.925Z,102372.38
2022-10-18T03:06:17.565Z,102373.34
2022-10-18T03:08:44.846Z,102370.63
2022-10-18T03:11:11.792Z,102370.63
2022-10-18T03:13:38.683Z,102378.78
2022-10-18T03:16:05.879Z,102369.94
2022-10-18T03:18:33.036Z,102373.56
2022-10-18T03:21:05.940Z,102377.22
2022-10-18T03:23:33.900Z,102376.34
2022-10-18T03:26:01.439Z,102372.00
2022-10-18T03:28:28.792Z,102372.97
2022-10-18T03:31:04.040Z,102379.31
2022-10-18T03:33:32.648Z,102380.19
2022-10-18T03:36:00.325Z,102368.63
2022-10-18T03:38:27.587Z,102367.81
2022-10-18T03:40:54.507Z,102369.63
2022-10-18T03:43:21.737Z,102371.47
2022-10-18T03:45:48.662Z,102372.34
2022-10-18T03:48:15.712Z,102371.47
2022-10-18T03:50:43.553Z,102371.47
2022-10-18T03:53:10.592Z,102370.59
2022-10-18T03:55:38.434Z,102373.41
2022-10-18T03:58:05.745Z,102378.00
2022-10-18T04:00:33.151Z,102376.25
2022-10-18T04:03:00.094Z,102372.94
2022-10-18T04:05:28.542Z,102379.28
2022-10-18T04:07:55.508Z,102372.13
2022-10-18T04:10:22.718Z,102378.56
2022-10-18T04:12:49.636Z,102376.75
2022-10-18T04:15:16.634Z,102377.63
2022-10-18T04:17:43.544Z,102390.22
2022-10-18T04:20:10.992Z,102383.97
2022-10-18T04:22:38.164Z,102389.41
2022-10-18T04:25:05.883Z,102384.13
2022-10-18T04:27:33.008Z,102388.63
2022-10-18T04:30:00.060Z,102384.28
2022-10-18T04:32:29.052Z,102388.81
2022-10-18T04:34:55.965Z,102387.03
2022-10-18T04:37:23.238Z,102384.34
2022-10-18T04:39:53.443Z,102385.31
2022-10-18T04:42:21.959Z,102388.00
2022-10-18T04:44:49.494Z,102380.00
2022-10-18T04:47:17.456Z,102386.34
2022-10-18T04:49:44.687Z,102380.09
2022-10-18T04:52:13.708Z,102383.66
2022-10-18T04:54:41.100Z,102370.19
2022-10-18T04:57:08.255Z,102377.41
2022-10-18T04:59:35.479Z,102381.06
2022-10-18T05:04:29.524Z,102373.84
2022-10-18T05:06:56.537Z,102373.91
2022-10-18T05:09:24.784Z,102372.06
2022-10-18T05:11:51.814Z,102369.31
2022-10-18T05:14:19.081Z,102370.19
2022-10-18T05:16:46.224Z,102363.84
2022-10-18T05:19:13.182Z,102372.88
2022-10-18T05:21:40.827Z,102370.19
2022-10-18T05:24:08.173Z,102372.81
2022-10-18T05:26:35.121Z,102367.44
2022-10-18T05:29:03.382Z,102378.19
2022-10-18T05:31:30.398Z,102376.44
2022-10-18T05:33:57.479Z,102364.91
2022-10-18T05:36:26.122Z,102363.13
2022-10-18T05:38:53.720Z,102365.81
2022-10-18T05:41:20.706Z,102365.94
2022-10-18T05:43:47.707Z,102360.59
2022-10-18T05:46:16.038Z,102367.75
2022-10-18T05:48:44.693Z,102363.28
2022-10-18T05:51:12.041Z,102356.13
2022-10-18T05:53:39.261Z,102357.91
2022-10-18T05:56:07.540Z,102360.59
2022-10-18T05:58:35.247Z,102366.88
2022-10-18T06:01:03.322Z,102361.56
2022-10-18T06:03:30.943Z,102366.94
2022-10-18T06:06:08.635Z,102359.75
2022-10-18T06:08:37.275Z,102359.75
2022-10-18T06:11:08.579Z,102365.06
2022-10-18T06:13:44.140Z,102364.09
2022-10-18T06:16:12.726Z,102362.44
2022-10-18T06:18:40.366Z,102370.50
2022-10-18T06:21:08.183Z,102365.13
2022-10-18T06:23:35.863Z,102366.88
2022-10-18T06:26:07.105Z,102369.56
2022-10-18T06:28:36.303Z,102368.53
2022-10-18T06:31:05.062Z,102371.16
2022-10-18T06:33:33.603Z,102370.13
2022-10-18T06:36:15.096Z,102367.25
2022-10-18T06:38:42.177Z,102369.75
2022-10-18T06:41:10.114Z,102374.06
2022-10-18T06:43:37.247Z,102372.13
2022-10-18T06:46:06.982Z,102379.97
2022-10-18T06:48:39.391Z,102382.41
2022-10-18T06:51:08.154Z,102391.34
2022-10-18T06:53:44.322Z,102395.66
2022-10-18T06:56:15.751Z,102387.47
2022-10-18T06:58:42.739Z,102387.31
2022-10-18T07:01:13.731Z,102397.06
2022-10-18T07:03:40.801Z,102389.72
2022-10-18T07:06:12.409Z,102402.97
2022-10-18T07:08:40.160Z,102398.34
2022-10-18T07:11:08.906Z,102398.13
2022-10-18T07:13:35.864Z,102400.72
2022-10-18T07:16:18.162Z,102409.44
2022-10-18T07:18:51.192Z,102405.63
2022-10-18T07:21:24.165Z,102405.47
2022-10-18T07:23:52.077Z,102411.56
2022-10-18T07:26:27.362Z,102409.47
2022-10-18T07:29:01.826Z,102411.91
2022-10-18T07:31:30.137Z,102413.47
2022-10-18T07:33:57.793Z,102412.38
2022-10-18T07:36:25.667Z,102423.84
2022-10-18T07:38:53.300Z,102414.78
2022-10-18T07:41:21.646Z,102426.25
2022-10-18T07:43:51.607Z,102419.75
2022-10-18T07:46:20.683Z,102417.66
2022-10-18T07:48:48.248Z,102422.88
2022-10-18T07:51:15.901Z,102412.78
2022-10-18T07:53:42.777Z,102415.22
2022-10-18T07:56:16.855Z,102409.56
2022-10-18T07:58:55.822Z,102416.63
2022-10-18T08:01:24.632Z,102416.34
2022-10-18T08:03:52.641Z,102418.78
2022-10-18T08:06:22.036Z,102409.53
2022-10-18T08:08:49.540Z,102409.25
2022-10-18T08:11:21.337Z,102413.44
2022-10-18T08:13:48.696Z,102408.91
2022-10-18T08:16:23.678Z,102414.81
2022-10-18T08:18:51.126Z,102414.97
2022-10-18T08:21:20.562Z,102418.13
2022-10-18T08:23:48.847Z,102421.25
2022-10-18T08:26:21.472Z,102413.56
2022-10-18T08:29:03.631Z,102415.13
2022-10-18T08:31:37.434Z,102414.75
2022-10-18T08:34:04.711Z,102412.66
2022-10-18T08:36:31.816Z,102412.25
2022-10-18T08:38:58.979Z,102413.72
2022-10-18T08:41:38.499Z,102411.50
2022-10-18T08:44:24.269Z,102406.28
2022-10-18T08:47:11.653Z,102410.16
2022-10-18T08:49:53.546Z,102397.25
2022-10-18T08:52:34.802Z,102404.97
2022-10-18T08:55:12.786Z,102394.53
2022-10-18T08:57:40.314Z,102390.56
2022-10-18T09:00:19.250Z,102388.28
2022-10-18T09:03:07.560Z,102388.75
2022-10-18T09:05:40.205Z,102389.34
2022-10-18T09:08:49.473Z,102386.16
2022-10-18T09:11:24.265Z,102389.34
2022-10-18T09:14:37.620Z,102382.44
2022-10-18T09:17:46.450Z,102378.47
2022-10-18T09:20:29.707Z,102380.56
2022-10-18T09:23:05.284Z,102375.72
2022-10-18T09:26:02.553Z,102365.66
2022-10-18T09:28:48.978Z,102356.94
2022-10-18T09:31:44.799Z,102362.44
2022-10-18T09:34:26.175Z,102365.41
2022-10-18T09:36:54.663Z,102362.19
2022-10-18T09:39:37.484Z,102353.75
2022-10-18T09:42:15.192Z,102350.38
2022-10-18T09:44:51.707Z,102345.22
2022-10-18T09:47:41.537Z,102340.16
2022-10-18T09:50:25.850Z,102340.94
2022-10-18T09:53:02.093Z,102339.53
2022-10-18T09:55:36.634Z,102335.22
2022-10-18T09:58:07.182Z,102330.97
2022-10-18T10:00:50.123Z,102338.59
2022-10-18T10:03:17.312Z,102326.78
2022-10-18T10:05:44.756Z,102329.78
2022-10-18T10:08:12.114Z,102326.66
2022-10-18T10:10:42.814Z,102326.44
2022-10-18T10:13:27.791Z,102323.84
2022-10-18T10:16:01.448Z,102325.97
2022-10-18T10:18:34.977Z,102323.06
2022-10-18T10:21:15.032Z,102319.03
2022-10-18T10:23:58.111Z,102307.97
2022-10-18T10:26:36.708Z,102308.44
2022-10-18T10:29:03.840Z,102309.56
2022-10-18T10:31:31.869Z,102306.19
2022-10-18T10:34:27.748Z,102303.38
2022-10-18T10:36:55.427Z,102307.13
2022-10-18T10:39:24.663Z,102303.75
2022-10-18T10:41:55.035Z,102302.63
2022-10-18T10:44:32.094Z,102285.41
2022-10-18T10:47:00.154Z,102294.72
2022-10-18T10:49:44.238Z,102286.84
2022-10-18T10:52:28.589Z,102280.84
2022-10-18T10:57:47.998Z,102272.50
2022-10-18T11:00:38.299Z,102271.03
2022-10-18T11:03:27.813Z,102266.00
2022-10-18T11:06:02.418Z,102256.16
2022-10-18T11:08:40.644Z,102251.22
2022-10-18T11:11:27.976Z,102254.91
2022-10-18T11:14:31.834Z,102249.09
2022-10-18T11:17:17.987Z,102228.84
2022-10-18T11:20:07.842Z,102233.69
2022-10-18T11:23:00.632Z,102225.91
2022-10-18T11:26:12.840Z,102222.56
2022-10-18T11:29:07.950Z,102211.19
2022-10-18T11:31:56.650Z,102198.84
2022-10-18T11:34:35.731Z,102194.25
2022-10-18T11:37:43.111Z,102196.47
2022-10-18T11:40:40.901Z,102182.13
2022-10-18T11:44:02.953Z,102176.94
2022-10-18T11:47:02.541Z,102152.31
2022-10-18T11:50:03.294Z,102159.09
2022-10-18T11:52:53.956Z,102145.97
2022-10-18T11:59:17.163Z,102136.13
2022-10-18T12:02:16.433Z,102139.19
2022-10-18T12:08:15.393Z,102131.47
2022-10-18T12:11:06.613Z,102122.06
2022-10-18T12:13:46.814Z,102120.84
2022-10-18T12:16:14.659Z,102121.28
2022-10-18T12:18:59.516Z,102115.03
2022-10-18T12:21:32.215Z,102108.94
2022-10-18T12:24:06.983Z,102106.28
2022-10-18T12:26:35.565Z,102100.53
2022-10-18T12:29:31.727Z,102097.28
2022-10-18T12:32:23.587Z,102088.84
2022-10-18T12:35:17.846Z,102075.78
2022-10-18T12:37:50.888Z,102077.84
2022-10-18T12:40:34.347Z,102075.44
2022-10-18T12:43:10.353Z,102069.44
2022-10-18T12:45:57.679Z,102068.16
2022-10-18T12:48:43.752Z,102064.91
2022-10-18T12:51:22.336Z,102060.03
2022-10-18T12:53:53.139Z,102050.72
2022-10-18T12:56:44.694Z,102046.41
2022-10-18T12:59:14.667Z,102050.44
2022-10-18T13:01:51.218Z,102038.38
2022-10-18T13:04:27.574Z,102040.69
2022-10-18T13:06:57.757Z,102029.06
2022-10-18T13:09:28.938Z,102027.78
2022-10-18T13:12:16.151Z,102022.94
2022-10-18T13:15:24.171Z,102020.50
2022-10-18T13:18:04.947Z,102024.50
2022-10-18T13:20:44.757Z,102023.63
2022-10-18T13:23:38.682Z,102026.81
2022-10-18T13:26:43.667Z,102024.50
2022-10-18T13:29:41.244Z,102009.44
2022-10-18T13:32:34.106Z,102007.13
2022-10-18T13:35:01.450Z,102002.84
2022-10-18T13:37:30.797Z,102001.53
2022-10-18T13:40:26.413Z,102004.13
2022-10-18T13:42:54.027Z,102002.84
2022-10-18T13:45:33.759Z,101999.81
2022-10-18T13:48:32.021Z,101993.91
2022-10-18T13:51:32.544Z,101996.06
2022-10-18T13:54:16.932Z,101999.81
2022-10-18T13:57:13.394Z,101996.66
2022-10-18T14:00:29.279Z,101992.78
2022-10-18T14:03:51.803Z,101983.44
2022-10-18T14:06:36.313Z,101985.44
2022-10-18T14:09:45.357Z,101973.25
2022-10-18T14:12:38.740Z,101975.53
2022-10-18T14:15:23.879Z,101969.06
2022-10-18T14:17:59.168Z,101973.69
2022-10-18T14:20:49.099Z,101968.50
2022-10-18T14:23:24.832Z,101972.53
2022-10-18T14:26:01.725Z,101969.94
2022-10-18T14:28:48.115Z,101969.38
2022-10-18T14:31:18.619Z,101963.91
2022-10-18T14:33:58.530Z,101962.78
2022-10-18T14:36:46.224Z,101959.88
2022-10-18T14:39:28.277Z,101958.63
2022-10-18T14:41:58.160Z,101972.41
2022-10-18T14:44:31.774Z,101961.66
2022-10-18T14:47:12.635Z,101953.88
2022-10-18T14:49:45.045Z,101954.78
2022-10-18T14:52:35.680Z,101944.16
2022-10-18T14:55:05.390Z,101941.41
2022-10-18T14:57:36.626Z,101935.97
2022-10-18T15:02:56.469Z,101931.22
2022-10-18T15:05:26.971Z,101933.09
2022-10-18T15:07:55.109Z,101924.19
2022-10-18T15:10:34.067Z,101931.38
2022-10-18T15:13:10.289Z,101930.66
2022-10-18T15:15:39.761Z,101921.91
2022-10-18T15:18:08.355Z,101918.31
2022-10-18T15:20:42.980Z,101925.66
2022-10-18T15:23:28.508Z,101919.34
2022-10-18T15:26:09.693Z,101923.34
2022-10-18T15:28:51.185Z,101920.78
2022-10-18T15:31:32.496Z,101920.91
2022-10-18T15:34:24.672Z,101920.31
2022-10-18T15:36:54.441Z,101924.34
2022-10-18T15:39:31.257Z,101921.78
2022-10-18T15:42:01.201Z,101917.59
2022-10-18T15:44:50.864Z,101909.00
2022-10-18T15:47:21.041Z,101906.53
2022-10-18T15:49:58.306Z,101911.41
2022-10-18T15:52:37.726Z,101907.22
2022-10-18T15:55:29.697Z,101899.34
2022-10-18T15:58:16.963Z,101899.03
2022-10-18T16:00:46.065Z,101896.03
2022-10-18T16:03:13.797Z,101901.91
2022-10-18T16:05:41.321Z,101903.34
2022-10-18T16:08:23.941Z,101903.03
2022-10-18T16:10:51.950Z,101899.16
2022-10-18T16:13:19.063Z,101907.88
2022-10-18T16:15:46.418Z,101904.72
2022-10-18T16:18:17.903Z,101897.97
2022-10-18T16:20:46.683Z,101904.97
2022-10-18T16:23:21.192Z,101905.50
2022-10-18T16:25:48.740Z,101898.00
2022-10-18T16:28:20.058Z,101904.72
2022-10-18T16:30:55.342Z,101907.00
2022-10-18T16:33:23.499Z,101911.97
2022-10-18T16:35:51.002Z,101910.66
2022-10-18T16:38:32.800Z,101913.78
2022-10-18T16:41:07.587Z,101910.88
2022-10-18T16:43:35.472Z,101921.31
2022-10-18T16:46:04.573Z,101925.25
2022-10-18T16:48:31.932Z,101921.38
2022-10-18T16:50:59.482Z,101920.91
2022-10-18T16:53:27.989Z,101922.31
2022-10-18T16:55:59.179Z,101922.72
2022-10-18T16:58:28.895Z,101932.22
2022-10-18T17:00:57.660Z,101932.59
2022-10-18T17:03:26.755Z,101936.56
2022-10-18T17:05:54.359Z,101943.38
2022-10-18T17:08:25.751Z,101936.50
2022-10-18T17:10:57.284Z,101939.63
2022-10-18T17:13:26.140Z,101931.84
2022-10-18T17:15:53.896Z,101935.97
2022-10-18T17:18:26.436Z,101944.47
2022-10-18T17:20:54.396Z,101951.03
2022-10-18T17:23:21.896Z,101948.72
2022-10-18T17:26:04.639Z,101945.50
2022-10-18T17:28:34.483Z,101949.47
2022-10-18T17:31:01.736Z,101950.84
2022-10-18T17:33:28.764Z,101943.09
2022-10-18T17:35:55.750Z,101948.78
2022-10-18T17:38:22.702Z,101940.03
2022-10-18T17:40:52.675Z,101951.13
2022-10-18T17:43:20.107Z,101950.59
2022-10-18T17:45:55.450Z,101952.59
2022-10-18T17:48:24.517Z,101954.81
2022-10-18T17:50:51.755Z,101964.06
2022-10-18T17:53:22.859Z,101957.31
2022-10-18T17:55:50.178Z,101957.56
2022-10-18T17:58:17.209Z,101958.66
2022-10-18T18:00:44.148Z,101961.75
2022-10-18T18:03:11.608Z,101970.16
2022-10-18T18:05:39.011Z,101963.97
2022-10-18T18:08:06.134Z,101960.63
2022-10-18T18:10:34.653Z,101965.31
2022-10-18T18:13:02.753Z,101965.69
2022-10-18T18:15:29.714Z,101965.81
2022-10-18T18:17:57.883Z,101969.66
2022-10-18T18:20:26.429Z,101964.56
2022-10-18T18:22:53.409Z,101962.97
2022-10-18T18:25:20.456Z,101960.50
2022-10-18T18:27:47.498Z,101971.63
2022-10-18T18:30:17.798Z,101966.44
2022-10-18T18:32:44.977Z,101973.81
2022-10-18T18:35:12.062Z,101976.00
2022-10-18T18:37:39.099Z,101976.00
2022-10-18T18:40:06.859Z,101974.69
2022-10-18T18:42:34.091Z,101979.59
2022-10-18T18:45:02.313Z,101977.00
2022-10-18T18:47:29.308Z,101970.03
2022-10-18T18:49:56.324Z,101972.88
2022-10-18T18:52:23.268Z,101974.84
2022-10-18T18:54:52.038Z,101970.50
2022-10-18T18:57:19.942Z,101974.44
2022-10-18T18:59:46.913Z,101971.03
2022-10-18T19:02:13.847Z,101975.78
2022-10-18T19:04:41.553Z,101967.91
2022-10-18T19:07:08.524Z,101966.31
2022-10-18T19:09:38.264Z,101966.53
2022-10-18T19:12:05.802Z,101966.66
2022-10-18T19:14:32.676Z,101976.75
2022-10-18T19:17:01.175Z,101975.00
2022-10-18T19:19:31.668Z,101967.88
2022-10-18T19:22:03.635Z,101975.38
2022-10-18T19:24:32.072Z,101972.03
2022-10-18T19:27:04.835Z,101970.41
2022-10-18T19:29:36.966Z,101975.09
2022-10-18T19:32:07.823Z,101970.88
2022-10-18T19:34:35.348Z,101973.72
2022-10-18T19:37:02.324Z,101974.81
2022-10-18T19:39:34.770Z,101973.19
2022-10-18T19:42:06.022Z,101962.59
2022-10-18T19:44:36.001Z,101968.16
2022-10-18T19:47:05.810Z,101961.97
2022-10-18T19:49:33.455Z,101974.75
2022-10-18T19:52:00.549Z,101959.63
2022-10-18T19:54:28.457Z,101967.84
2022-10-18T19:56:55.686Z,101968.94
2022-10-18T19:59:24.122Z,101972.75
2022-10-18T20:01:51.282Z,101969.28
2022-10-18T20:04:18.392Z,101980.25
2022-10-18T20:06:45.717Z,101979.50
2022-10-18T20:09:16.270Z,101984.16
2022-10-18T20:11:46.471Z,101979.84
2022-10-18T20:14:13.393Z,101985.47
2022-10-18T20:16:40.244Z,101989.25
2022-10-18T20:19:07.738Z,101986.63
2022-10-18T20:21:36.418Z,101991.31
2022-10-18T20:24:05.927Z,101991.41
2022-10-18T20:26:34.610Z,101990.69
2022-10-18T20:29:02.026Z,101987.22
2022-10-18T20:31:32.378Z,101989.06
2022-10-18T20:34:03.213Z,101988.31
2022-10-18T20:36:32.108Z,101991.13
2022-10-18T20:39:00.349Z,101985.81
2022-10-18T20:41:34.750Z,101993.22
2022-10-18T20:44:07.079Z,101986.03
2022-10-18T20:46:37.174Z,101981.72
2022-10-18T20:49:06.587Z,101989.09
2022-10-18T20:51:34.562Z,101992.03
2022-10-18T20:56:35.373Z,101997.78
2022-10-18T20:59:06.157Z,101987.28
2022-10-18T21:01:35.037Z,101988.28
2022-10-18T21:04:08.526Z,101985.78
2022-10-18T21:06:40.324Z,101985.03
2022-10-18T21:09:11.745Z,101984.28
2022-10-18T21:11:41.701Z,101983.53
2022-10-18T21:14:16.118Z,101984.59
2022-10-18T21:16:44.273Z,101986.66
2022-10-18T21:19:27.027Z,101991.31
2022-10-18T21:21:57.164Z,101986.88
2022-10-18T21:24:25.800Z,101979.84
2022-10-18T21:26:53.759Z,101988.09
2022-10-18T21:29:22.610Z,101976.63
2022-10-18T21:31:54.110Z,101988.41
2022-10-18T21:34:21.597Z,101978.47
2022-10-18T21:36:49.281Z,101983.22
2022-10-18T21:39:21.090Z,101985.06
2022-10-18T21:41:49.277Z,101974.22
2022-10-18T21:44:18.162Z,101983.47
2022-10-18T21:46:46.843Z,101974.66
2022-10-18T21:49:14.925Z,101964.97
2022-10-18T21:51:42.528Z,101968.75
2022-10-18T21:54:15.668Z,101970.69
2022-10-18T21:56:43.608Z,101967.25
2022-10-18T21:59:14.460Z,101972.75
2022-10-18T22:01:43.664Z,101967.34
2022-10-18T22:04:25.361Z,101963.78
2022-10-18T22:06:52.620Z,101960.41
2022-10-18T22:09:21.358Z,101963.31
2022-10-18T22:11:52.758Z,101962.75
2022-10-18T22:14:20.285Z,101955.75
2022-10-18T22:16:47.361Z,101962.22
2022-10-18T22:19:14.529Z,101958.66
2022-10-18T22:21:41.841Z,101959.75
2022-10-18T22:24:10.137Z,101959.19
2022-10-18T22:26:40.920Z,101959.31
2022-10-18T22:29:18.866Z,101954.19
2022-10-18T22:31:53.680Z,101946.31
2022-10-18T22:34:29.137Z,101945.56
2022-10-18T22:36:56.306Z,101952.91
2022-10-18T22:39:24.570Z,101953.13
2022-10-18T22:41:55.758Z,101956.81
2022-10-18T22:44:23.228Z,101952.38
2022-10-18T22:46:50.141Z,101944.38
2022-10-18T22:49:17.121Z,101949.97
2022-10-18T22:51:44.148Z,101951.81
2022-10-18T22:54:11.249Z,101954.63
2022-10-18T22:56:38.388Z,101948.47
2022-10-18T22:59:05.669Z,101951.25
2022-10-18T23:01:32.748Z,101956.00
2022-10-18T23:04:01.193Z,101960.66
2022-10-18T23:06:37.171Z,101952.66
2022-10-18T23:09:07.979Z,101952.78
2022-10-18T23:11:36.465Z,101955.56
2022-10-18T23:14:05.884Z,101947.59
2022-10-18T23:16:33.465Z,101950.38
2022-10-18T23:19:00.456Z,101942.47
2022-10-18T23:21:48.123Z,101937.06
2022-10-18T23:24:15.152Z,101935.34
2022-10-18T23:26:42.086Z,101927.38
2022-10-18T23:29:10.219Z,101931.03
2022-10-18T23:31:39.099Z,101933.84
2022-10-18T23:34:06.466Z,101929.50
2022-10-18T23:36:33.938Z,101935.03
2022-10-18T23:39:01.516Z,101929.06
2022-10-18T23:41:28.503Z,101927.44
2022-10-18T23:43:56.154Z,101924.72
2022-10-18T23:46:23.570Z,101925.72
2022-10-18T23:48:50.998Z,101923.00
2022-10-18T23:51:18.639Z,101925.78
2022-10-18T23:53:45.872Z,101921.38
2022-10-18T23:56:15.745Z,101926.78
2022-10-18T23:58:44.235Z,101919.66
